Terminal Aerodrome Forecast
Issued by NWS

Home | Current Version | Previous Version | Text Only | Print | Product List | Glossary On
Versions: 1 2 3 4 5 6 7 8 9 10 11 12 13 14
000
FTUS45 KTFX 211100 RRA
TAFGTF
TAF
KGTF 211145Z 2112/2212 21018G25KT P6SM SCT070 BKN120
     FM211700 23024G34KT P6SM SCT080 BKN120
     FM212000 26017KT P6SM SCT080 BKN130=

USA.gov is the U.S. government's official web portal to all federal, state and local government web resources and services.